Time;durP1;ratioP1;P1;durP2;ratioP2;P2;SDS_P1;SDS_P2;PMS_P1;PMS_P2;Temp;Humidity;BMP_temperature;BMP_pressure;BME280_temperature;BME280_humidity;BME280_pressure;Samples;Min_cycle;Max_cycle;Signal;HPM_P1;HPM_P2
2023/07/07 00:01:03;;;;;;;8.40;3.05;;;16.70;99.90;;;-141.84;53.35;20960.25;4897332;29;20240;-60
2023/07/07 00:03:32;;;;;;;3.40;2.95;;;16.60;99.90;;;-141.84;53.62;20952.13;4890280;29;20226;-60
2023/07/07 00:06:01;;;;;;;3.50;3.20;;;16.60;99.90;;;-141.84;53.69;20927.72;4887719;29;20210;-62
2023/07/07 00:08:29;;;;;;;3.42;2.72;;;16.50;99.90;;;-141.84;53.55;20921.63;4880571;29;20246;-61
2023/07/07 00:10:58;;;;;;;3.90;2.90;;;16.50;99.90;;;-141.84;53.12;20978.56;4887830;29;20258;-61
2023/07/07 00:13:28;;;;;;;5.20;2.95;;;16.50;99.90;;;-141.84;52.95;20960.25;4906294;28;20237;-61
2023/07/07 00:16:00;;;;;;;6.20;2.88;;;16.60;99.90;;;-141.84;53.32;20933.81;4889428;29;20231;-61
2023/07/07 00:18:29;;;;;;;4.20;2.60;;;16.60;99.90;;;-141.84;53.51;20933.81;4879742;29;20227;-62
2023/07/07 00:21:01;;;;;;;3.00;2.70;;;16.50;99.90;;;-141.84;53.62;20913.50;4887881;29;20219;-61
2023/07/07 00:23:30;;;;;;;2.95;2.70;;;16.50;99.90;;;-141.84;53.41;20956.19;4888966;29;20239;-61
2023/07/07 00:26:01;;;;;;;3.33;2.70;;;16.50;99.90;;;-141.84;53.23;20988.72;4904999;28;20253;-61
2023/07/07 00:28:30;;;;;;;3.55;2.70;;;16.50;99.90;;;-141.84;53.73;20907.41;4899070;28;20663;-61
2023/07/07 00:30:59;;;;;;;2.97;2.67;;;16.50;99.90;;;-141.84;53.90;20921.63;4906586;28;20272;-62
2023/07/07 00:33:29;;;;;;;2.88;2.63;;;16.40;99.90;;;-141.84;53.92;20954.16;4905079;28;20242;-61
2023/07/07 00:35:58;;;;;;;3.83;2.45;;;16.40;99.90;;;-141.84;53.43;20941.97;4887595;29;20238;-61
2023/07/07 00:38:26;;;;;;;3.33;3.00;;;16.40;99.90;;;-141.84;53.56;20923.66;4880575;29;20246;-61
2023/07/07 00:40:55;;;;;;;3.42;3.03;;;16.40;99.90;;;-141.84;54.24;20937.91;4887125;29;20723;-61
2023/07/07 00:43:24;;;;;;;4.53;2.53;;;16.40;99.90;;;-141.84;53.68;20952.13;4887156;29;20261;-61
2023/07/07 00:45:52;;;;;;;4.15;2.95;;;16.40;99.90;;;-141.84;54.05;20962.28;4894406;29;20512;-61
2023/07/07 00:48:26;;;;;;;3.00;2.70;;;16.40;99.90;;;-141.84;54.11;20895.19;4895692;28;20704;-61
2023/07/07 00:51:03;;;;;;;4.13;2.65;;;16.40;99.90;;;-141.84;54.39;20964.31;4887774;29;20202;-62
2023/07/07 00:53:33;;;;;;;3.47;2.83;;;16.30;99.90;;;-141.84;54.60;20907.41;4907065;29;20273;-62
2023/07/07 00:56:06;;;;;;;2.85;2.58;;;16.30;99.90;;;-141.84;54.74;20903.34;4910763;29;20221;-60
2023/07/07 00:58:41;;;;;;;3.45;2.78;;;16.30;99.90;;;-141.84;54.34;20909.44;4880242;29;20811;-61
2023/07/07 01:01:17;;;;;;;3.42;3.13;;;16.20;99.90;;;-141.84;54.22;20899.28;4887288;29;20225;-61
2023/07/07 01:03:51;;;;;;;4.25;3.15;;;16.20;99.90;;;-141.84;54.50;20876.91;4895260;29;20304;-62
2023/07/07 01:06:27;;;;;;;3.38;2.88;;;16.20;99.90;;;-141.84;54.85;20874.88;4898515;29;20305;-61
2023/07/07 01:09:04;;;;;;;3.25;2.95;;;16.20;99.90;;;-141.84;55.02;20883.00;4906236;28;20300;-62
2023/07/07 01:11:33;;;;;;;3.78;3.03;;;16.10;99.90;;;-141.84;55.30;20842.34;4909487;28;20245;-61
2023/07/07 01:14:07;;;;;;;3.17;2.88;;;16.10;99.90;;;-141.84;54.96;20872.84;4923481;28;20265;-61
2023/07/07 01:16:47;;;;;;;3.63;2.88;;;16.10;99.90;;;-141.84;55.01;20876.91;4898798;29;20238;-61
2023/07/07 01:19:58;;;;;;;3.10;2.80;;;16.20;99.90;;;-141.84;55.55;20850.47;4905566;29;20587;-60
2023/07/07 01:23:19;;;;;;;3.97;3.05;;;16.10;99.90;;;-141.84;55.95;20824.06;4898976;29;20225;-62
2023/07/07 01:26:16;;;;;;;3.08;2.78;;;16.00;99.90;;;-141.84;55.99;20850.47;4905459;29;20714;-61
2023/07/07 01:29:21;;;;;;;3.42;3.13;;;16.00;99.90;;;-141.84;56.18;20817.94;4903019;29;20297;-61
2023/07/07 01:31:58;;;;;;;3.58;3.28;;;15.90;99.90;;;-141.84;56.41;20834.22;4907288;29;20294;-61
2023/07/07 01:34:27;;;;;;;3.30;3.00;;;15.90;99.90;;;-141.84;55.85;20836.25;4895338;29;20607;-60
2023/07/07 01:36:56;;;;;;;3.80;3.33;;;15.90;99.90;;;-141.84;56.34;20864.72;4901104;29;20230;-61
2023/07/07 01:39:26;;;;;;;3.55;3.17;;;15.90;99.90;;;-141.84;56.47;20830.16;4889796;29;20784;-60
2023/07/07 01:42:01;;;;;;;3.72;3.40;;;15.90;99.90;;;-141.84;56.67;20848.44;4890655;29;20715;-61
2023/07/07 01:44:42;;;;;;;3.50;3.20;;;15.80;99.90;;;-141.84;56.66;20797.63;4901814;29;20643;-61
2023/07/07 01:47:17;;;;;;;3.58;3.28;;;15.80;99.90;;;-141.84;57.00;20822.03;4909001;29;20794;-60
2023/07/07 01:49:57;;;;;;;3.70;3.33;;;15.80;99.90;;;-141.84;57.51;20797.63;4909038;29;20257;-60
2023/07/07 01:52:35;;;;;;;3.30;3.00;;;15.80;99.90;;;-141.84;57.55;20797.63;4900470;29;20627;-61
2023/07/07 01:55:11;;;;;;;4.57;3.10;;;15.70;99.90;;;-141.84;57.81;20765.09;4898889;28;20289;-63
2023/07/07 01:57:42;;;;;;;3.00;2.80;;;15.70;99.90;;;-141.84;58.94;20748.84;4920387;28;20261;-61
2023/07/07 02:00:14;;;;;;;3.13;2.85;;;15.60;99.90;;;-141.84;58.44;20781.38;4908850;28;20773;-61
2023/07/07 02:02:44;;;;;;;4.18;2.75;;;15.60;99.90;;;-141.84;59.32;20752.91;4903631;28;20296;-60
2023/07/07 02:05:14;;;;;;;3.28;2.97;;;15.60;99.90;;;-141.84;59.46;20708.19;4893311;29;20235;-61
2023/07/07 02:07:43;;;;;;;4.95;2.90;;;15.50;99.90;;;-141.84;59.13;20752.91;4889796;29;20237;-61
2023/07/07 02:10:12;;;;;;;3.92;3.50;;;15.40;99.90;;;-141.84;59.43;20785.44;4890057;29;20666;-61
2023/07/07 02:12:40;;;;;;;5.10;4.03;;;15.40;99.90;;;-141.84;59.58;20740.69;4894174;28;20376;-60
2023/07/07 02:15:09;;;;;;;3.80;3.42;;;15.40;99.90;;;-141.84;59.71;20738.66;4898066;29;20666;-61
2023/07/07 02:17:38;;;;;;;3.60;3.30;;;15.40;99.90;;;-141.84;58.35;20817.94;4889882;29;20249;-61
2023/07/07 02:20:09;;;;;;;3.47;3.17;;;15.40;99.90;;;-141.84;58.89;20785.44;4889739;29;20241;-60
2023/07/07 02:22:38;;;;;;;3.75;3.28;;;15.50;99.90;;;-141.84;58.73;20734.59;4882120;29;21221;-61
2023/07/07 02:25:08;;;;;;;3.78;3.30;;;15.50;99.90;;;-141.84;58.62;20761.03;4900033;28;20293;-61
2023/07/07 02:27:36;;;;;;;3.47;3.17;;;15.40;99.90;;;-141.84;58.92;20779.31;4908429;28;20738;-60
2023/07/07 02:30:06;;;;;;;3.85;3.10;;;15.40;99.90;;;-141.84;58.06;20789.50;4907908;28;20833;-60
2023/07/07 02:32:34;;;;;;;3.47;3.15;;;15.50;99.90;;;-141.84;57.59;20775.25;4900391;28;20755;-61
2023/07/07 02:35:06;;;;;;;4.88;3.60;;;15.50;99.90;;;-141.84;57.62;20787.47;4885296;28;20227;-62
2023/07/07 02:37:36;;;;;;;3.78;3.03;;;15.50;99.90;;;-141.84;57.31;20761.03;4887907;29;20330;-61
2023/07/07 02:40:07;;;;;;;4.43;3.13;;;15.50;99.90;;;-141.84;57.37;20775.25;4889427;29;20246;-62
2023/07/07 02:42:35;;;;;;;5.90;3.60;;;15.50;99.90;;;-141.84;58.56;20752.91;4880538;28;20730;-60
2023/07/07 02:45:03;;;;;;;3.40;2.97;;;15.50;99.90;;;-141.84;58.95;20740.69;4888975;29;20278;-62
2023/07/07 02:47:32;;;;;;;5.07;3.38;;;15.40;99.90;;;-141.84;59.22;20756.97;4889950;29;20242;-61
2023/07/07 02:50:00;;;;;;;5.30;3.53;;;15.40;99.90;;;-141.84;59.72;20756.97;4878874;29;20763;-61
2023/07/07 02:52:29;;;;;;;2.97;2.78;;;15.40;99.90;;;-141.84;59.36;20695.97;4862819;29;20334;-61
2023/07/07 02:54:59;;;;;;;4.25;3.15;;;15.30;99.90;;;-141.84;59.11;20722.41;4870120;29;20247;-61
2023/07/07 02:57:27;;;;;;;3.47;3.00;;;15.30;99.90;;;-141.84;59.00;20763.06;4900887;28;20261;-60
2023/07/07 02:59:55;;;;;;;3.47;3.10;;;15.20;99.90;;;-141.84;59.13;20740.69;4907825;28;20298;-61
2023/07/07 03:02:23;;;;;;;3.67;3.38;;;15.30;99.90;;;-141.84;59.88;20700.03;4919193;28;20255;-60
2023/07/07 03:04:52;;;;;;;3.92;3.00;;;15.20;99.90;;;-141.84;59.98;20714.28;4896514;28;20261;-61
2023/07/07 03:07:20;;;;;;;3.80;3.28;;;15.20;99.90;;;-141.84;59.38;20698.00;4888718;29;20235;-61
2023/07/07 03:09:48;;;;;;;4.38;3.20;;;15.20;99.90;;;-141.84;58.84;20722.41;4888868;29;20262;-61
2023/07/07 03:12:18;;;;;;;3.78;3.03;;;15.10;99.90;;;-141.84;59.00;20693.94;4897754;28;20222;-60
2023/07/07 03:14:46;;;;;;;7.80;3.42;;;15.10;99.90;;;-141.84;58.60;20683.78;4900175;29;20261;-61
2023/07/07 03:17:16;;;;;;;4.77;3.40;;;15.10;99.90;;;-141.84;59.01;20756.97;4888228;29;20257;-61
2023/07/07 03:19:44;;;;;;;4.03;3.40;;;15.10;99.90;;;-141.84;59.01;20738.66;4888969;29;20277;-62
2023/07/07 03:22:12;;;;;;;3.77;3.37;;;15.20;99.90;;;-141.84;58.25;20754.94;4888463;29;20279;-61
2023/07/07 03:24:40;;;;;;;3.45;3.15;;;15.20;99.90;;;-141.84;58.00;20734.59;4888083;28;20285;-61
2023/07/07 03:27:09;;;;;;;4.23;3.10;;;15.20;99.90;;;-141.84;58.84;20716.31;4906659;28;20210;-62
2023/07/07 03:29:40;;;;;;;5.13;3.42;;;15.20;99.90;;;-141.84;58.84;20724.44;4908232;28;20248;-62
2023/07/07 03:32:09;;;;;;;3.70;3.40;;;15.30;99.90;;;-141.84;58.83;20752.91;4906796;28;20242;-62
2023/07/07 03:34:37;;;;;;;4.93;3.33;;;15.30;99.90;;;-141.84;58.68;20763.06;4889922;28;20297;-62
2023/07/07 03:37:06;;;;;;;4.40;3.38;;;15.30;99.90;;;-141.84;58.81;20742.75;4888211;29;20325;-62
2023/07/07 03:39:34;;;;;;;3.70;3.25;;;15.30;99.90;;;-141.84;59.30;20728.50;4888537;29;20241;-62
2023/07/07 03:42:03;;;;;;;3.78;3.40;;;15.30;99.90;;;-141.84;58.77;20752.91;4888197;29;20305;-62
2023/07/07 03:44:32;;;;;;;3.70;3.35;;;15.30;99.90;;;-141.84;58.49;20750.88;4880644;29;20301;-61
2023/07/07 03:47:01;;;;;;;4.15;3.30;;;15.30;99.90;;;-141.84;59.41;20744.78;4871187;29;20342;-62
2023/07/07 03:49:30;;;;;;;3.60;3.30;;;15.40;99.90;;;-141.84;58.87;20789.50;4869273;29;20720;-61
2023/07/07 03:51:58;;;;;;;4.50;3.45;;;15.40;99.90;;;-141.84;58.66;20777.28;4869738;29;20323;-60
2023/07/07 03:54:26;;;;;;;3.63;3.33;;;15.40;99.90;;;-141.84;58.37;20791.53;4861853;29;20302;-62
2023/07/07 03:56:54;;;;;;;4.35;3.20;;;15.50;99.90;;;-141.84;58.26;20789.50;4892020;28;20816;-62
2023/07/07 03:59:22;;;;;;;4.80;3.17;;;15.50;99.90;;;-141.84;58.68;20789.50;4924545;28;20366;-61
2023/07/07 04:01:51;;;;;;;3.55;3.17;;;15.50;99.90;;;-141.84;58.49;20787.47;4906614;28;20741;-62
2023/07/07 04:04:20;;;;;;;4.53;3.47;;;15.60;99.90;;;-141.84;59.12;20777.28;4897384;28;20226;-62
2023/07/07 04:06:49;;;;;;;3.45;3.15;;;15.60;99.90;;;-141.84;59.71;20769.16;4906548;28;20260;-62
2023/07/07 04:09:17;;;;;;;3.60;3.30;;;15.60;99.90;;;-141.84;59.42;20771.19;4906571;28;20235;-61
2023/07/07 04:11:45;;;;;;;5.85;4.15;;;15.50;99.90;;;-141.84;59.38;20789.50;4912085;28;20240;-60
2023/07/07 04:14:13;;;;;;;4.10;3.53;;;15.60;99.90;;;-141.84;58.94;20822.03;4903631;29;20314;-62
2023/07/07 04:16:42;;;;;;;4.43;3.60;;;15.70;99.90;;;-141.84;58.56;20799.66;4880621;29;20238;-61
2023/07/07 04:19:10;;;;;;;4.07;3.50;;;15.70;99.90;;;-141.84;58.79;20809.81;4887535;29;20270;-62
2023/07/07 04:21:40;;;;;;;4.70;3.50;;;15.70;99.90;;;-141.84;58.84;20828.13;4887941;29;20330;-61
2023/07/07 04:24:08;;;;;;;4.80;3.45;;;15.80;99.90;;;-141.84;59.08;20817.94;4889188;29;20223;-62
2023/07/07 04:26:38;;;;;;;4.00;3.60;;;15.80;99.90;;;-141.84;58.35;20820.00;4899103;29;20237;-62
2023/07/07 04:29:06;;;;;;;4.13;3.72;;;15.90;99.90;;;-141.84;57.89;20854.53;4906800;29;20592;-60
2023/07/07 04:31:35;;;;;;;4.53;3.30;;;15.90;99.90;;;-141.84;57.50;20870.81;4906632;29;20266;-63
2023/07/07 04:34:03;;;;;;;4.22;3.83;;;16.10;99.90;;;-141.84;57.89;20856.56;4900332;29;20270;-61
2023/07/07 04:36:31;;;;;;;4.38;3.80;;;16.10;99.90;;;-141.84;57.59;20907.41;4880154;29;20318;-62
2023/07/07 04:39:00;;;;;;;5.40;3.80;;;16.20;99.90;;;-141.84;56.96;20919.59;4887641;29;20297;-62
2023/07/07 04:41:29;;;;;;;4.22;3.83;;;16.30;99.90;;;-141.84;56.52;20903.34;4887718;29;20218;-61
2023/07/07 04:44:00;;;;;;;5.65;3.80;;;16.40;99.90;;;-141.84;55.60;20956.19;4903539;28;20289;-61
2023/07/07 04:46:32;;;;;;;4.57;3.63;;;16.50;99.90;;;-141.84;55.49;20978.56;4898502;28;20229;-60
2023/07/07 04:49:06;;;;;;;4.57;3.85;;;16.60;99.90;;;-141.84;54.97;20990.75;4906201;28;20972;-62
2023/07/07 04:51:36;;;;;;;5.75;4.07;;;16.70;99.90;;;-141.84;54.70;21041.56;4906437;28;20708;-63
2023/07/07 04:54:07;;;;;;;5.20;3.55;;;16.90;99.90;;;-141.84;54.42;21084.28;4906252;28;20686;-62
2023/07/07 04:56:36;;;;;;;3.63;3.33;;;17.10;99.90;;;-141.84;52.49;21411.59;4899539;28;20297;-62
2023/07/07 04:59:07;;;;;;;4.70;3.40;;;18.00;99.90;;;-141.84;46.75;21924.00;4906531;28;20246;-61
2023/07/07 05:01:37;;;;;;;5.00;3.58;;;19.60;99.90;;;-141.84;41.92;22505.59;4905917;28;20250;-62
2023/07/07 05:04:06;;;;;;;4.30;3.35;;;21.50;99.90;;;-141.84;37.88;22999.84;4905815;28;20233;-65
2023/07/07 05:06:38;;;;;;;5.13;2.95;;;23.20;99.90;;;-141.84;35.38;23451.44;4901602;28;20318;-64
2023/07/07 05:09:09;;;;;;;5.80;3.28;;;24.60;99.90;;;-141.84;33.68;23781.00;4909956;28;20210;-62
2023/07/07 05:11:38;;;;;;;3.55;3.03;;;25.80;99.90;;;-141.84;33.14;24027.16;4914994;28;20198;-62
2023/07/07 05:14:06;;;;;;;4.28;2.85;;;26.50;99.90;;;-141.84;31.78;24407.66;4909485;29;20268;-61
2023/07/07 05:16:38;;;;;;;3.45;2.70;;;27.40;99.90;;;-141.84;31.25;24645.72;4883902;29;20238;-63
2023/07/07 05:19:07;;;;;;;4.05;3.40;;;27.70;99.90;;;-141.84;30.91;24765.78;4890183;29;20238;-62
2023/07/07 05:21:35;;;;;;;5.20;3.25;;;28.00;99.90;;;-141.84;30.45;24881.78;4890801;29;20230;-63
2023/07/07 05:24:05;;;;;;;3.63;2.65;;;28.10;99.90;;;-141.84;30.50;24918.41;4891736;29;20629;-62
2023/07/07 05:26:34;;;;;;;3.95;3.03;;;28.40;99.90;;;-141.84;30.55;24847.19;4902615;29;20746;-62
2023/07/07 05:29:05;;;;;;;5.55;3.20;;;28.10;99.90;;;-141.84;30.16;24942.81;4909758;29;20226;-64
2023/07/07 05:31:34;;;;;;;3.97;3.08;;;28.00;99.90;;;-141.84;30.86;24790.19;4895579;29;20330;-61
2023/07/07 05:34:03;;;;;;;4.70;3.47;;;27.50;99.90;;;-141.84;30.22;24863.44;4890079;29;20253;-61
2023/07/07 05:36:31;;;;;;;3.47;3.17;;;27.90;99.90;;;-141.84;30.50;24682.34;4883078;29;20235;-61
2023/07/07 05:38:59;;;;;;;7.00;3.55;;;27.90;99.90;;;-141.84;31.06;24385.25;4890293;29;20782;-61
2023/07/07 05:41:27;;;;;;;7.22;3.47;;;27.60;99.90;;;-141.84;31.81;24149.25;4890978;29;20286;-65
2023/07/07 05:43:57;;;;;;;4.25;3.17;;;27.00;99.90;;;-141.84;33.31;23624.34;4890400;29;20227;-61
2023/07/07 05:46:25;;;;;;;5.10;3.00;;;26.50;99.90;;;-141.84;35.32;23193.09;4881929;29;20794;-61
2023/07/07 05:48:53;;;;;;;5.53;3.25;;;25.60;99.90;;;-141.84;37.35;22873.75;4889889;29;20719;-60
2023/07/07 05:51:21;;;;;;;3.53;2.97;;;24.80;99.90;;;-141.84;38.60;22629.66;4890132;29;20262;-61
2023/07/07 05:53:49;;;;;;;3.28;2.97;;;24.20;99.90;;;-141.84;39.09;22497.47;4891025;29;20544;-61
2023/07/07 05:56:21;;;;;;;5.32;3.50;;;23.80;99.90;;;-141.84;39.50;22355.13;4906219;29;20225;-60
2023/07/07 05:58:53;;;;;;;4.93;3.38;;;23.40;99.90;;;-141.84;40.32;22239.19;4909117;28;20249;-61
2023/07/07 06:01:22;;;;;;;3.35;3.05;;;23.10;99.90;;;-141.84;41.34;22182.25;4908958;28;20233;-61
2023/07/07 06:03:51;;;;;;;6.07;3.30;;;22.80;99.90;;;-141.84;41.69;22143.63;4904693;28;20231;-60
2023/07/07 06:06:19;;;;;;;5.07;3.45;;;22.70;99.90;;;-141.84;41.63;22137.50;4885148;29;20242;-61
2023/07/07 06:08:48;;;;;;;4.70;3.33;;;22.60;99.90;;;-141.84;42.01;22135.47;4890605;29;20234;-61
2023/07/07 06:11:16;;;;;;;4.45;3.17;;;22.50;99.90;;;-141.84;41.94;22123.28;4891693;29;20555;-61
2023/07/07 06:13:45;;;;;;;4.30;3.25;;;22.50;99.90;;;-141.84;41.89;22149.72;4908456;28;20233;-61
2023/07/07 06:16:13;;;;;;;6.97;3.65;;;22.50;99.90;;;-141.84;41.47;22168.03;4888696;28;20249;-61
2023/07/07 06:18:43;;;;;;;7.18;3.30;;;22.60;99.90;;;-141.84;41.91;22151.75;4882657;29;21033;-61
2023/07/07 06:21:11;;;;;;;4.05;3.40;;;22.60;99.90;;;-141.84;41.44;22133.44;4889359;29;20208;-61
2023/07/07 06:23:39;;;;;;;3.60;3.20;;;22.60;99.90;;;-141.84;41.63;22155.81;4889820;29;20211;-60
2023/07/07 06:26:07;;;;;;;6.47;2.90;;;22.60;99.90;;;-141.84;41.67;22135.47;4871385;29;20232;-61
2023/07/07 06:28:36;;;;;;;4.50;2.97;;;22.60;99.90;;;-141.84;41.21;22182.25;4882453;28;20231;-61
2023/07/07 06:31:04;;;;;;;3.60;2.83;;;22.70;99.90;;;-141.84;41.63;22198.53;4889326;28;20239;-60
2023/07/07 06:33:32;;;;;;;6.28;3.22;;;22.80;99.90;;;-141.84;40.50;22176.16;4889837;29;20241;-61
2023/07/07 06:36:02;;;;;;;3.00;2.75;;;22.80;99.90;;;-141.84;41.01;22170.06;4889317;29;20223;-61
2023/07/07 06:38:30;;;;;;;4.50;2.92;;;22.80;99.90;;;-141.84;40.61;22198.53;4882268;29;20211;-60
2023/07/07 06:40:58;;;;;;;3.95;3.10;;;22.90;99.90;;;-141.84;40.88;22212.75;4888974;29;20280;-61
2023/07/07 06:43:27;;;;;;;3.00;2.67;;;22.90;99.90;;;-141.84;40.53;22216.81;4889326;29;20234;-60
2023/07/07 06:45:57;;;;;;;3.13;2.80;;;23.00;99.90;;;-141.84;41.22;22237.16;4889074;29;20286;-60
2023/07/07 06:48:25;;;;;;;4.75;2.97;;;23.00;99.90;;;-141.84;40.89;22253.44;4881117;29;20265;-61
2023/07/07 06:50:53;;;;;;;5.88;2.90;;;23.10;99.90;;;-141.84;40.64;22285.97;4888456;29;20455;-61
2023/07/07 06:53:23;;;;;;;3.03;2.72;;;23.10;99.90;;;-141.84;40.93;22255.47;4908081;28;20229;-60
2023/07/07 06:55:51;;;;;;;2.90;2.60;;;23.20;99.90;;;-141.84;40.85;22296.13;4910179;28;20573;-60
2023/07/07 06:58:22;;;;;;;3.45;2.58;;;23.30;99.90;;;-141.84;40.76;22338.84;4907273;28;20321;-60
2023/07/07 07:00:50;;;;;;;5.53;2.90;;;23.30;99.90;;;-141.84;40.64;22332.75;4908190;29;20257;-60
2023/07/07 07:03:18;;;;;;;3.53;2.85;;;23.30;99.90;;;-141.84;40.69;22310.38;4907700;29;20770;-60
2023/07/07 07:05:47;;;;;;;3.00;2.65;;;23.30;99.90;;;-141.84;40.67;22330.72;4870173;29;20208;-61
2023/07/07 07:08:16;;;;;;;3.22;2.92;;;23.30;99.90;;;-141.84;40.58;22342.91;4869531;29;20239;-60
2023/07/07 07:10:45;;;;;;;3.00;2.70;;;23.30;99.90;;;-141.84;40.74;22336.81;4883753;29;20726;-60
2023/07/07 07:13:13;;;;;;;2.70;2.42;;;23.40;99.90;;;-141.84;40.85;22369.34;4895471;29;20679;-61
2023/07/07 07:15:42;;;;;;;3.47;2.83;;;23.40;99.90;;;-141.84;41.28;22385.63;4887958;29;20238;-61
2023/07/07 07:18:13;;;;;;;4.28;3.25;;;23.50;99.90;;;-141.84;40.58;22379.53;4888797;29;20270;-60
2023/07/07 07:20:42;;;;;;;7.43;2.70;;;23.50;99.90;;;-141.84;40.30;22326.66;4882025;29;20211;-60
2023/07/07 07:23:10;;;;;;;3.58;2.53;;;23.30;99.90;;;-141.84;41.08;22405.97;4888513;29;20337;-60
2023/07/07 07:25:38;;;;;;;4.35;2.70;;;23.40;99.90;;;-141.84;40.82;22414.09;4873493;29;20239;-60
2023/07/07 07:28:08;;;;;;;4.03;2.88;;;23.50;99.90;;;-141.84;40.60;22379.53;4869960;29;20271;-67
2023/07/07 07:30:36;;;;;;;4.72;2.50;;;23.50;99.90;;;-141.84;39.80;22420.19;4873584;28;20713;-68
2023/07/07 07:33:13;;;;;;;3.83;2.80;;;23.60;99.90;;;-141.84;40.48;22412.06;4906137;29;20284;-67
2023/07/07 07:35:42;;;;;;;4.65;3.00;;;23.60;99.90;;;-141.84;40.61;22403.94;4890100;29;20334;-69
2023/07/07 07:38:10;;;;;;;3.65;2.60;;;23.60;99.90;;;-141.84;40.68;22452.72;4889891;29;20286;-68
2023/07/07 07:40:38;;;;;;;5.10;2.90;;;23.60;99.90;;;-141.84;40.40;22440.53;4882946;29;20243;-69
2023/07/07 07:43:08;;;;;;;3.17;2.80;;;23.70;99.90;;;-141.84;40.21;22373.41;4887721;29;20239;-71
2023/07/07 07:45:38;;;;;;;3.30;3.00;;;23.60;99.90;;;-141.84;40.35;22428.31;4881143;28;20240;-69
2023/07/07 07:48:06;;;;;;;4.20;2.67;;;23.60;99.90;;;-141.84;38.82;22410.03;4888813;29;20554;-75
2023/07/07 07:50:35;;;;;;;3.60;2.40;;;23.60;99.90;;;-141.84;38.89;22401.88;4898797;29;20217;-72
2023/07/07 07:53:03;;;;;;;4.93;2.60;;;23.60;99.90;;;-141.84;38.51;22397.81;4906584;29;20254;-76
2023/07/07 07:55:31;;;;;;;2.65;2.30;;;23.60;99.90;;;-141.84;38.82;22428.31;4905674;28;20297;-75
2023/07/07 07:58:00;;;;;;;3.00;2.50;;;23.50;99.90;;;-141.84;38.82;22365.28;4888044;29;20250;-73
2023/07/07 08:00:30;;;;;;;5.13;2.50;;;23.50;99.90;;;-141.84;39.42;22369.34;4880563;29;20740;-73
2023/07/07 08:02:58;;;;;;;2.85;2.53;;;23.40;99.90;;;-141.84;39.38;22367.31;4888479;29;20210;-72
2023/07/07 08:05:26;;;;;;;4.63;2.80;;;23.40;99.90;;;-141.84;39.51;22383.59;4904846;29;20329;-74
2023/07/07 08:07:55;;;;;;;4.15;2.83;;;23.40;99.90;;;-141.84;39.55;22369.34;4890659;29;20850;-73
2023/07/07 08:10:23;;;;;;;3.72;2.58;;;23.40;99.90;;;-141.84;39.42;22395.78;4880536;29;20314;-71
2023/07/07 08:12:51;;;;;;;3.15;2.70;;;23.50;99.90;;;-141.84;39.06;22438.50;4902490;29;20299;-74
2023/07/07 08:15:19;;;;;;;4.00;2.53;;;23.50;99.90;;;-141.84;38.15;22438.50;4894681;29;20250;-73
2023/07/07 08:17:49;;;;;;;2.95;2.65;;;23.60;99.90;;;-141.84;38.33;22416.13;4888977;29;20262;-79
2023/07/07 08:20:20;;;;;;;2.78;2.55;;;23.60;99.90;;;-141.84;38.88;22424.25;4885635;29;20473;-81
2023/07/07 08:22:48;;;;;;;4.28;2.67;;;23.60;99.90;;;-141.84;39.00;22391.72;4902778;28;20305;-78
2023/07/07 08:25:16;;;;;;;4.72;2.40;;;23.50;99.90;;;-141.84;38.17;22479.16;4904917;28;20333;-73
2023/07/07 08:27:45;;;;;;;2.92;2.15;;;23.60;99.90;;;-141.84;37.44;22473.06;4899921;28;20269;-72
2023/07/07 08:30:16;;;;;;;2.78;2.20;;;23.60;99.90;;;-141.84;37.15;22497.47;4888744;29;20252;-70
2023/07/07 08:32:44;;;;;;;3.45;2.75;;;23.70;99.90;;;-141.84;38.29;22456.81;4883799;29;20250;-71
2023/07/07 08:35:14;;;;;;;5.07;2.50;;;23.70;99.90;;;-141.84;37.50;22487.31;4887249;29;20234;-67
2023/07/07 08:37:42;;;;;;;4.55;2.40;;;23.80;99.90;;;-141.84;37.93;22493.41;4887358;29;20334;-69
2023/07/07 08:40:18;;;;;;;4.72;2.45;;;23.80;99.90;;;-141.84;37.54;22456.81;4888982;29;20290;-69
2023/07/07 08:42:47;;;;;;;2.83;2.30;;;23.80;99.90;;;-141.84;37.75;22477.13;4895118;29;20278;-69
2023/07/07 08:45:20;;;;;;;3.75;2.35;;;23.80;99.90;;;-141.84;37.44;22491.38;4893359;29;20258;-68
2023/07/07 08:48:00;;;;;;;2.85;2.25;;;23.90;99.90;;;-141.84;37.60;22546.28;4891752;29;20213;-66
2023/07/07 08:50:43;;;;;;;5.00;2.50;;;23.90;99.90;;;-141.84;37.58;22562.56;4903221;29;20317;-70
2023/07/07 08:53:45;;;;;;;3.42;2.20;;;24.00;99.90;;;-141.84;37.16;22560.53;4910543;29;20261;-77
2023/07/07 08:56:25;;;;;;;3.28;2.40;;;24.00;99.90;;;-141.84;37.52;22554.41;4897272;29;20655;-71
2023/07/07 08:59:10;;;;;;;2.45;2.25;;;24.00;99.90;;;-141.84;36.55;22633.75;4909977;29;20229;-70
2023/07/07 09:01:50;;;;;;;2.78;2.28;;;24.20;99.90;;;-141.84;37.02;22607.31;4890767;29;20242;-68
2023/07/07 09:04:36;;;;;;;4.07;2.22;;;24.30;99.90;;;-141.84;36.49;22623.56;4900468;29;20228;-69
2023/07/07 09:07:39;;;;;;;4.68;2.20;;;24.30;99.90;;;-141.84;36.91;22566.63;4909848;28;20261;-68
2023/07/07 09:10:37;;;;;;;3.75;2.20;;;24.30;99.90;;;-141.84;37.54;22652.03;4909416;29;20276;-67
2023/07/07 09:13:20;;;;;;;4.55;2.40;;;24.30;99.90;;;-141.84;36.29;22647.97;4925306;28;20271;-68
2023/07/07 09:16:03;;;;;;;2.92;2.00;;;24.30;99.90;;;-141.84;36.42;22607.31;4912691;29;20780;-68
2023/07/07 09:18:40;;;;;;;2.42;2.20;;;24.30;99.90;;;-141.84;35.94;22623.56;4901410;29;20230;-67
2023/07/07 09:21:23;;;;;;;3.20;2.40;;;24.40;99.90;;;-141.84;35.71;22652.03;4909183;28;20206;-68
2023/07/07 09:23:58;;;;;;;2.53;2.00;;;24.40;99.90;;;-141.84;35.07;22682.56;4909646;29;20663;-77
2023/07/07 09:26:32;;;;;;;3.13;2.50;;;24.50;99.90;;;-141.84;35.24;22696.78;4901710;29;20329;-78
2023/07/07 09:29:08;;;;;;;4.28;2.40;;;24.60;99.90;;;-141.84;35.09;22678.47;4909402;29;20349;-75
2023/07/07 09:31:42;;;;;;;2.90;2.03;;;24.60;99.90;;;-141.84;36.15;22694.75;4909654;29;20607;-73
2023/07/07 09:34:14;;;;;;;2.53;2.33;;;24.60;99.90;;;-141.84;35.72;22796.44;4902776;28;20230;-77
2023/07/07 09:36:54;;;;;;;2.90;2.03;;;24.70;99.90;;;-141.84;34.97;22737.47;4884546;29;20321;-76
2023/07/07 09:39:53;;;;;;;2.78;2.53;;;24.70;99.90;;;-141.84;35.19;22753.75;4871750;29;20491;-69
2023/07/07 09:42:45;;;;;;;4.85;2.38;;;24.70;99.90;;;-141.84;35.44;22761.88;4863826;29;20290;-68
2023/07/07 09:45:39;;;;;;;2.90;2.50;;;24.70;99.90;;;-141.84;34.85;22770.00;4887479;29;20305;-70
2023/07/07 09:48:25;;;;;;;2.60;2.15;;;24.80;99.90;;;-141.84;34.40;22782.22;4890221;29;20672;-69
2023/07/07 09:51:05;;;;;;;3.72;2.47;;;24.80;99.90;;;-141.84;33.67;22810.69;4889959;29;20211;-69
2023/07/07 09:53:37;;;;;;;2.92;2.38;;;24.80;99.90;;;-141.84;34.17;22776.09;4908190;29;20852;-69
2023/07/07 09:56:26;;;;;;;2.55;2.35;;;24.80;99.90;;;-141.84;34.60;22751.69;4909420;28;20238;-69
2023/07/07 09:59:05;;;;;;;4.32;2.40;;;24.70;99.90;;;-141.84;34.22;22765.94;4894044;29;20266;-74
2023/07/07 10:01:38;;;;;;;4.55;2.50;;;24.70;99.90;;;-141.84;34.03;22778.16;4891329;29;20314;-71
2023/07/07 10:04:15;;;;;;;4.05;2.10;;;24.70;99.90;;;-141.84;33.75;22770.00;4893355;29;20234;-74
2023/07/07 10:06:53;;;;;;;3.60;2.33;;;24.80;99.90;;;-141.84;33.76;22810.69;4884961;29;20234;-70
2023/07/07 10:09:21;;;;;;;3.47;2.28;;;24.80;99.90;;;-141.84;33.69;22887.97;4889681;29;20265;-69
2023/07/07 10:11:52;;;;;;;2.72;2.15;;;25.00;99.90;;;-141.84;34.11;22826.97;4895895;29;20262;-69
2023/07/07 10:14:42;;;;;;;4.70;2.30;;;25.00;99.90;;;-141.84;33.93;22875.78;4894374;29;20733;-75
2023/07/07 10:17:28;;;;;;;3.28;2.20;;;25.20;99.90;;;-141.84;33.52;22851.38;4889688;29;20243;-75
2023/07/07 10:20:00;;;;;;;4.13;2.70;;;25.20;99.90;;;-141.84;33.89;22871.72;4890152;29;20293;-74
2023/07/07 10:22:29;;;;;;;5.90;2.42;;;25.20;99.90;;;-141.84;34.03;22898.16;4881779;29;20298;-74
2023/07/07 10:24:58;;;;;;;3.72;2.40;;;25.20;99.90;;;-141.84;33.65;22869.66;4890074;29;20274;-74